Аэропорт: Гянджа. Гянджа

ICAO: UBBG

METAR:
2019-07-23 18:30:00
UBBG 231830Z 06014KT 9999 SCT100 27/19 Q1007 R12/CLRD// NOSIG
METAR:
2019-07-23 17:00:00
TAF UBBG 231700Z 2318/2418 12014KT 9999 SCT040 BKN080 TX34/2312Z TN25/2402Z TEMPO 2318/2322 FEW040CB BKN060 BECMG 2322/2324 VRB04KT